Time;durP1;ratioP1;P1;durP2;ratioP2;P2;SDS_P1;SDS_P2;PMS_P1;PMS_P2;Temp;Humidity;BMP_temperature;BMP_pressure;BME280_temperature;BME280_humidity;BME280_pressure;Samples;Min_cycle;Max_cycle;Signal;HPM_P1;HPM_P2
2023/05/20 00:00:11;;;;;;;5.53;5.13;;;14.70;51.80;;;;;;20876;6741;117390;-81
2023/05/20 00:02:47;;;;;;;6.63;5.10;;;14.60;51.80;;;;;;20863;6741;117455;-83
2023/05/20 00:05:22;;;;;;;5.63;5.10;;;14.60;51.90;;;;;;20858;6741;117149;-77
2023/05/20 00:07:59;;;;;;;6.20;5.60;;;14.90;52.60;;;;;;20663;6756;277162;-76
2023/05/20 00:10:34;;;;;;;6.03;5.53;;;14.80;52.50;;;;;;20826;6756;117527;-77
2023/05/20 00:13:11;;;;;;;6.40;5.80;;;14.90;52.00;;;;;;20532;6771;281560;-79
2023/05/20 00:15:47;;;;;;;5.77;5.23;;;15.20;51.60;;;;;;20833;6753;120852;-76
2023/05/20 00:18:22;;;;;;;4.80;4.40;;;15.30;51.40;;;;;;20832;6752;123021;-81
2023/05/20 00:20:58;;;;;;;5.60;5.10;;;15.10;51.60;;;;;;20613;6748;298047;-80
2023/05/20 00:23:33;;;;;;;5.93;5.43;;;15.30;52.90;;;;;;20539;6751;313116;-77
2023/05/20 00:26:09;;;;;;;4.73;4.40;;;15.70;52.40;;;;;;20875;6741;122779;-79
2023/05/20 00:28:45;;;;;;;5.73;5.23;;;15.60;52.00;;;;;;20776;6771;120997;-77
2023/05/20 00:31:20;;;;;;;6.20;5.70;;;15.40;52.10;;;;;;20651;6741;306114;-76
2023/05/20 00:33:57;;;;;;;6.20;5.70;;;15.80;51.20;;;;;;20534;6751;282743;-80
2023/05/20 00:36:32;;;;;;;7.03;6.43;;;15.80;51.20;;;;;;20594;6763;314048;-80
2023/05/20 00:39:08;;;;;;;6.20;5.68;;;16.10;50.90;;;;;;20577;6750;307339;-81
2023/05/20 00:41:43;;;;;;;6.30;5.75;;;16.20;50.70;;;;;;20662;6743;300255;-78
2023/05/20 00:44:25;;;;;;;5.43;5.00;;;16.30;50.30;;;;;;20778;6735;117601;-82
2023/05/20 00:47:01;;;;;;;6.43;5.90;;;16.10;50.40;;;;;;20628;6752;329904;-78
2023/05/20 00:49:35;;;;;;;6.70;5.17;;;16.10;50.70;;;;;;20851;6743;117456;-82
2023/05/20 00:52:11;;;;;;;5.30;4.90;;;15.60;51.10;;;;;;20880;6739;116954;-82
2023/05/20 00:54:46;;;;;;;5.73;5.33;;;15.60;51.10;;;;;;20507;6743;307607;-77
2023/05/20 00:57:25;;;;;;;6.72;6.15;;;15.70;51.70;;;;;;20643;6745;277201;-78
2023/05/20 00:59:58;;;;;;;6.80;6.30;;;16.00;51.30;;;;;;20658;6745;277483;-82
2023/05/20 01:02:35;;;;;;;6.65;6.15;;;16.20;50.70;;;;;;20650;6745;336062;-77
2023/05/20 01:05:10;;;;;;;6.23;5.63;;;16.30;50.20;;;;;;20847;6745;121202;-81
2023/05/20 01:07:46;;;;;;;5.37;4.87;;;16.10;50.40;;;;;;20894;6736;117455;-77
2023/05/20 01:10:21;;;;;;;6.60;6.00;;;15.70;50.90;;;;;;20691;6736;305808;-78
2023/05/20 01:12:57;;;;;;;5.70;5.30;;;15.80;51.40;;;;;;20863;6736;116906;-82
2023/05/20 01:15:33;;;;;;;6.37;5.83;;;15.70;51.30;;;;;;20840;6752;120221;-80
2023/05/20 01:18:09;;;;;;;6.18;5.68;;;15.60;52.00;;;;;;20638;6752;311545;-78
2023/05/20 01:20:48;;;;;;;6.60;6.10;;;15.60;52.00;;;;;;20641;6752;306157;-77
2023/05/20 01:23:23;;;;;;;6.20;5.70;;;15.90;51.60;;;;;;20755;6752;117921;-78
2023/05/20 01:25:59;;;;;;;6.12;5.70;;;15.80;51.20;;;;;;20708;6736;311034;-78
2023/05/20 01:28:35;;;;;;;6.30;5.70;;;15.80;51.20;;;;;;20843;6751;116903;-84
2023/05/20 01:31:18;;;;;;;5.77;5.47;;;15.70;51.10;;;;;;20840;6748;118436;-82
2023/05/20 01:33:53;;;;;;;6.37;5.80;;;15.40;51.40;;;;;;20567;6736;309355;-82
2023/05/20 01:36:28;;;;;;;6.10;5.70;;;15.60;50.90;;;;;;20610;6750;337038;-78
2023/05/20 01:39:05;;;;;;;5.77;5.37;;;15.90;50.50;;;;;;20813;6763;117248;-77
2023/05/20 01:41:40;;;;;;;7.37;6.25;;;15.80;50.40;;;;;;20653;6748;306756;-83
2023/05/20 01:44:16;;;;;;;5.43;5.03;;;15.70;50.20;;;;;;20788;6738;117346;-83
2023/05/20 01:46:51;;;;;;;6.90;6.30;;;15.70;50.20;;;;;;20720;6723;289676;-76
2023/05/20 01:49:29;;;;;;;5.20;4.90;;;15.70;50.30;;;;;;20864;6738;117102;-81
2023/05/20 01:52:06;;;;;;;6.60;6.00;;;15.40;51.00;;;;;;20820;6752;117524;-77
2023/05/20 01:54:41;;;;;;;6.33;5.83;;;15.30;50.60;;;;;;20500;6748;307640;-77
2023/05/20 01:57:17;;;;;;;6.77;5.53;;;15.50;50.80;;;;;;20862;6741;117050;-77
2023/05/20 01:59:52;;;;;;;6.87;6.40;;;15.40;50.60;;;;;;20629;6748;340096;-81
2023/05/20 02:02:38;;;;;;;6.40;5.80;;;15.50;50.80;;;;;;20867;6748;116988;-76
2023/05/20 02:05:04;;;;;;;7.07;6.47;;;15.40;50.70;;;;;;20619;6753;336683;-80
2023/05/20 02:07:40;;;;;;;6.53;6.13;;;15.30;50.80;;;;;;20797;6758;117147;-77
2023/05/20 02:10:16;;;;;;;7.60;6.10;;;15.30;50.80;;;;;;20832;6761;117310;-77
2023/05/20 02:12:52;;;;;;;6.23;5.83;;;14.80;51.50;;;;;;20681;6765;117260;-77
2023/05/20 02:15:28;;;;;;;6.00;5.60;;;14.70;51.40;;;;;;20837;6743;122204;-79
2023/05/20 02:18:04;;;;;;;6.20;5.80;;;14.60;51.20;;;;;;20640;6743;338746;-81
2023/05/20 02:20:43;;;;;;;6.00;5.70;;;15.20;51.80;;;;;;20622;6743;311214;-81
2023/05/20 02:23:15;;;;;;;5.80;5.30;;;15.20;51.70;;;;;;20795;6743;117658;-81
2023/05/20 02:25:51;;;;;;;6.70;6.05;;;15.10;51.40;;;;;;20657;6748;306444;-77
2023/05/20 02:28:27;;;;;;;6.13;5.73;;;15.50;51.20;;;;;;20605;6761;278516;-76
2023/05/20 02:31:02;;;;;;;6.50;5.90;;;15.40;51.20;;;;;;20645;6759;335667;-77
2023/05/20 02:33:39;;;;;;;6.17;5.77;;;15.80;51.30;;;;;;20536;6760;307278;-76
2023/05/20 02:36:16;;;;;;;6.35;5.85;;;15.70;50.50;;;;;;20664;6744;306274;-82
2023/05/20 02:38:50;;;;;;;6.10;5.60;;;15.90;50.30;;;;;;20567;6777;279241;-77
2023/05/20 02:41:29;;;;;;;5.53;5.13;;;15.60;50.30;;;;;;20857;6740;117398;-81
2023/05/20 02:44:02;;;;;;;6.03;5.60;;;15.50;50.20;;;;;;20556;6740;282577;-77
2023/05/20 02:46:38;;;;;;;6.10;5.70;;;15.60;50.60;;;;;;20691;6739;276852;-77
2023/05/20 02:49:14;;;;;;;6.30;5.90;;;15.60;50.60;;;;;;20694;6725;306108;-79
2023/05/20 02:51:51;;;;;;;6.33;5.83;;;15.70;50.40;;;;;;20657;6742;278121;-77
2023/05/20 02:54:32;;;;;;;6.28;5.80;;;15.70;50.30;;;;;;20580;6729;337102;-84
2023/05/20 02:57:03;;;;;;;6.10;5.60;;;15.80;50.40;;;;;;20669;6741;281745;-77
2023/05/20 02:59:39;;;;;;;5.63;5.23;;;15.90;50.20;;;;;;20722;6726;276489;-78
2023/05/20 03:02:15;;;;;;;6.15;5.62;;;15.90;50.20;;;;;;20650;6748;336527;-78
2023/05/20 03:04:52;;;;;;;43.47;39.57;;;16.00;49.50;;;;;;20483;6757;282953;-81
2023/05/20 03:07:27;;;;;;;7.35;6.75;;;16.00;50.00;;;;;;20646;6741;339784;-77
2023/05/20 03:10:03;;;;;;;6.00;5.60;;;16.10;50.00;;;;;;20623;6745;307490;-77
2023/05/20 03:12:38;;;;;;;5.80;5.30;;;16.00;49.90;;;;;;20592;6763;312134;-79
2023/05/20 03:15:14;;;;;;;5.20;4.80;;;16.10;50.00;;;;;;20828;6750;117500;-82
2023/05/20 03:17:51;;;;;;;5.57;5.18;;;15.70;50.10;;;;;;20669;6743;307446;-77
2023/05/20 03:20:28;;;;;;;5.47;5.10;;;15.70;50.80;;;;;;20870;6741;117426;-81
2023/05/20 03:23:03;;;;;;;5.40;5.00;;;15.20;51.40;;;;;;20851;6738;117061;-77
2023/05/20 03:25:38;;;;;;;5.97;5.37;;;15.10;51.30;;;;;;20627;6748;310824;-77
2023/05/20 03:28:14;;;;;;;5.00;4.57;;;15.20;52.10;;;;;;20846;6746;122750;-77
2023/05/20 03:30:51;;;;;;;4.60;4.30;;;15.20;51.90;;;;;;20823;6746;120803;-78
2023/05/20 03:33:27;;;;;;;5.57;5.20;;;15.10;52.50;;;;;;20586;6790;320998;-82
2023/05/20 03:36:03;;;;;;;5.20;4.90;;;15.10;52.50;;;;;;20599;6761;306518;-77
2023/05/20 03:38:39;;;;;;;5.20;4.80;;;15.30;51.80;;;;;;20899;6733;117338;-81
2023/05/20 03:41:15;;;;;;;5.47;5.00;;;15.30;51.80;;;;;;20883;6734;117045;-77
2023/05/20 03:43:50;;;;;;;5.60;5.20;;;15.00;52.10;;;;;;20584;6737;308166;-81
2023/05/20 03:46:26;;;;;;;5.20;4.80;;;15.10;52.20;;;;;;20902;6733;116847;-80
2023/05/20 03:49:02;;;;;;;4.80;4.50;;;15.10;52.20;;;;;;20896;6733;117281;-77
2023/05/20 03:51:38;;;;;;;5.65;5.25;;;14.90;52.50;;;;;;20641;6744;305378;-80
2023/05/20 03:54:15;;;;;;;5.30;5.00;;;15.10;52.90;;;;;;20735;6741;117549;-80
2023/05/20 03:56:50;;;;;;;5.95;5.45;;;15.10;52.60;;;;;;20645;6748;307580;-77
2023/05/20 03:59:26;;;;;;;5.87;5.47;;;15.20;52.60;;;;;;20622;6745;307131;-79
2023/05/20 04:02:00;;;;;;;5.73;5.33;;;15.50;52.10;;;;;;20941;6733;116917;-83
2023/05/20 04:04:36;;;;;;;5.72;5.32;;;15.40;52.00;;;;;;20514;6748;309142;-79
2023/05/20 04:07:11;;;;;;;5.37;5.07;;;15.40;52.30;;;;;;20630;6748;306691;-78
2023/05/20 04:09:47;;;;;;;6.15;5.55;;;15.60;52.00;;;;;;20637;6750;307064;-80
2023/05/20 04:12:24;;;;;;;5.80;5.40;;;15.80;51.60;;;;;;20641;6748;315143;-77
2023/05/20 04:15:00;;;;;;;5.70;5.20;;;16.10;51.10;;;;;;20475;6801;334348;-80
2023/05/20 04:17:38;;;;;;;4.77;4.40;;;15.80;51.90;;;;;;20866;6730;116896;-78
2023/05/20 04:20:11;;;;;;;5.80;5.40;;;15.80;51.30;;;;;;20694;6733;309618;-78
2023/05/20 04:22:47;;;;;;;5.13;4.83;;;15.60;51.60;;;;;;20878;6733;117568;-80
2023/05/20 04:25:24;;;;;;;5.47;5.17;;;15.60;51.60;;;;;;20609;6742;276614;-78
2023/05/20 04:28:01;;;;;;;5.87;5.47;;;15.70;52.00;;;;;;20671;6736;307065;-79
2023/05/20 04:30:37;;;;;;;5.80;5.40;;;15.90;51.90;;;;;;20680;6733;281471;-78
2023/05/20 04:33:13;;;;;;;6.07;5.53;;;16.10;51.50;;;;;;20854;6723;117424;-78
2023/05/20 04:35:48;;;;;;;5.90;5.50;;;15.90;51.60;;;;;;20612;6758;278140;-78
2023/05/20 04:38:28;;;;;;;5.83;5.40;;;15.90;51.80;;;;;;20672;6743;277276;-78
2023/05/20 04:41:05;;;;;;;6.20;5.90;;;16.10;51.60;;;;;;20667;6735;307597;-77
2023/05/20 04:43:38;;;;;;;5.47;5.00;;;16.30;51.20;;;;;;20758;6744;117307;-79
2023/05/20 04:46:17;;;;;;;4.90;4.60;;;16.10;51.20;;;;;;20861;6744;116970;-79
2023/05/20 04:48:49;;;;;;;5.10;4.80;;;15.80;51.70;;;;;;20820;6744;117398;-79
2023/05/20 04:51:25;;;;;;;5.68;5.28;;;15.50;52.20;;;;;;20575;6748;307723;-80
2023/05/20 04:54:01;;;;;;;5.00;4.70;;;15.70;52.50;;;;;;20787;6733;117258;-81
2023/05/20 04:56:37;;;;;;;5.77;5.37;;;15.70;52.30;;;;;;20937;6724;117328;-80
2023/05/20 04:59:12;;;;;;;6.43;5.93;;;15.50;52.40;;;;;;20937;6719;117364;-79
2023/05/20 05:01:47;;;;;;;7.97;7.43;;;15.30;52.70;;;;;;20743;6719;297430;-80
2023/05/20 05:04:24;;;;;;;7.83;7.33;;;15.70;53.50;;;;;;20627;6718;277349;-79
2023/05/20 05:06:59;;;;;;;6.93;6.03;;;15.70;53.40;;;;;;20952;6718;117703;-81
2023/05/20 05:09:35;;;;;;;8.40;5.73;;;15.70;53.30;;;;;;20934;6718;117293;-80
2023/05/20 05:12:10;;;;;;;6.47;5.97;;;15.40;53.50;;;;;;20734;6718;305866;-79
2023/05/20 05:14:46;;;;;;;5.57;5.27;;;15.50;53.60;;;;;;20792;6718;121076;-80
2023/05/20 05:17:22;;;;;;;6.68;6.18;;;15.60;53.40;;;;;;20619;6741;306853;-80
2023/05/20 05:19:57;;;;;;;6.33;5.83;;;15.70;53.20;;;;;;20868;6741;116886;-80
2023/05/20 05:22:35;;;;;;;7.03;6.53;;;15.70;53.40;;;;;;20685;6726;337472;-80
2023/05/20 05:25:10;;;;;;;7.23;6.83;;;15.80;53.10;;;;;;20696;6736;276163;-80
2023/05/20 05:27:49;;;;;;;6.00;5.63;;;16.10;52.60;;;;;;20710;6736;305683;-81
2023/05/20 05:30:21;;;;;;;6.65;6.28;;;16.30;52.10;;;;;;20714;6736;306071;-80
2023/05/20 05:32:57;;;;;;;6.55;6.15;;;16.50;51.80;;;;;;20572;6748;320923;-79
2023/05/20 05:35:32;;;;;;;6.13;5.83;;;16.70;51.60;;;;;;20487;6777;279090;-80
2023/05/20 05:38:09;;;;;;;6.60;6.10;;;17.00;50.90;;;;;;20619;6758;309246;-78
2023/05/20 05:40:44;;;;;;;6.43;5.80;;;17.00;50.90;;;;;;20879;6741;116948;-79
2023/05/20 05:43:20;;;;;;;5.60;5.13;;;16.80;51.20;;;;;;20780;6744;117918;-79
2023/05/20 05:45:55;;;;;;;6.90;6.30;;;16.30;51.60;;;;;;20681;6733;336390;-79
2023/05/20 05:48:32;;;;;;;7.00;6.50;;;16.60;52.30;;;;;;20653;6745;298849;-79
2023/05/20 05:51:09;;;;;;;6.57;6.17;;;16.60;52.50;;;;;;20897;6733;117049;-77
2023/05/20 05:53:44;;;;;;;6.87;5.80;;;16.40;52.30;;;;;;20821;6733;117422;-78
2023/05/20 05:56:20;;;;;;;6.63;6.20;;;16.20;52.70;;;;;;20853;6748;117141;-85
2023/05/20 05:58:55;;;;;;;7.57;7.07;;;15.90;53.00;;;;;;20630;6745;278169;-77
2023/05/20 06:01:31;;;;;;;7.90;7.30;;;16.10;53.10;;;;;;20587;6748;337200;-77
2023/05/20 06:04:06;;;;;;;6.77;6.27;;;16.40;52.80;;;;;;20718;6756;117490;-77
2023/05/20 06:06:42;;;;;;;6.87;6.37;;;16.40;52.60;;;;;;20758;6778;117269;-76
2023/05/20 06:09:17;;;;;;;6.33;5.93;;;16.10;52.70;;;;;;20765;6761;129231;-76
2023/05/20 06:11:53;;;;;;;5.77;5.43;;;16.00;53.30;;;;;;20822;6759;123903;-76
2023/05/20 06:14:29;;;;;;;6.35;5.93;;;15.90;53.60;;;;;;20457;6759;306774;-77
2023/05/20 06:17:04;;;;;;;7.07;5.67;;;16.20;53.40;;;;;;20841;6747;117213;-77
2023/05/20 06:19:40;;;;;;;6.40;6.00;;;16.30;52.90;;;;;;20653;6735;307563;-77
2023/05/20 06:22:15;;;;;;;5.83;5.43;;;16.60;52.90;;;;;;20881;6748;122698;-76
2023/05/20 06:24:51;;;;;;;6.50;6.10;;;16.70;52.20;;;;;;20482;6750;309026;-78
2023/05/20 06:27:26;;;;;;;5.90;5.40;;;16.90;52.20;;;;;;20774;6762;117523;-78
2023/05/20 06:30:04;;;;;;;5.60;5.10;;;17.00;52.10;;;;;;20867;6745;117091;-79
2023/05/20 06:32:39;;;;;;;6.80;6.40;;;16.80;52.20;;;;;;20640;6745;278608;-76
2023/05/20 06:35:15;;;;;;;6.30;5.90;;;17.40;51.30;;;;;;20544;6760;309393;-79
2023/05/20 06:37:51;;;;;;;6.00;5.60;;;17.40;51.30;;;;;;20805;6762;117352;-76
2023/05/20 06:40:27;;;;;;;5.53;5.03;;;17.40;51.00;;;;;;20822;6747;117668;-75
2023/05/20 06:43:04;;;;;;;6.20;5.80;;;17.10;51.30;;;;;;20551;6752;341504;-75
2023/05/20 06:45:40;;;;;;;6.17;5.57;;;17.30;51.30;;;;;;20847;6747;118595;-75
2023/05/20 06:48:19;;;;;;;5.87;5.47;;;17.30;51.30;;;;;;20868;6746;116959;-78
2023/05/20 06:50:53;;;;;;;6.70;5.90;;;17.10;51.50;;;;;;20876;6741;118388;-75
2023/05/20 06:53:28;;;;;;;6.90;6.50;;;17.00;51.90;;;;;;20557;6748;308996;-78
2023/05/20 06:56:04;;;;;;;6.60;6.20;;;17.30;52.10;;;;;;20575;6753;312026;-76
2023/05/20 06:58:40;;;;;;;6.80;6.20;;;17.70;51.50;;;;;;20587;6763;337269;-75
2023/05/20 07:01:15;;;;;;;6.82;6.43;;;18.20;50.60;;;;;;20546;6760;303237;-75
2023/05/20 07:03:51;;;;;;;5.60;5.23;;;18.60;49.60;;;;;;20754;6748;121630;-77
2023/05/20 07:06:29;;;;;;;5.73;5.40;;;18.60;49.50;;;;;;20880;6733;116845;-76
2023/05/20 07:09:04;;;;;;;7.00;6.50;;;18.50;49.60;;;;;;20660;6744;295413;-76
2023/05/20 07:11:39;;;;;;;6.53;6.03;;;18.50;49.60;;;;;;20843;6744;117879;-76
2023/05/20 07:14:14;;;;;;;9.23;8.63;;;18.60;49.80;;;;;;20517;6753;279476;-77
2023/05/20 07:16:50;;;;;;;6.50;6.10;;;19.00;49.30;;;;;;20648;6750;305827;-76
2023/05/20 07:19:25;;;;;;;6.57;6.18;;;19.60;48.40;;;;;;20614;6746;307050;-78
2023/05/20 07:22:01;;;;;;;6.23;5.73;;;20.10;47.70;;;;;;20829;6742;118072;-77
2023/05/20 07:24:37;;;;;;;5.80;5.50;;;20.30;47.80;;;;;;20713;6742;117356;-79
2023/05/20 07:27:12;;;;;;;6.43;6.00;;;20.40;47.90;;;;;;20849;6746;122802;-77
2023/05/20 07:29:48;;;;;;;7.10;6.60;;;20.20;47.60;;;;;;20657;6745;306140;-80
2023/05/20 07:32:24;;;;;;;6.90;6.30;;;20.70;46.40;;;;;;20679;6730;313869;-73
2023/05/20 07:35:00;;;;;;;6.80;6.40;;;20.70;46.20;;;;;;20470;6804;313590;-74
2023/05/20 07:37:36;;;;;;;6.97;6.57;;;21.00;45.30;;;;;;20611;6745;307010;-76
2023/05/20 07:40:11;;;;;;;6.37;6.03;;;21.20;45.30;;;;;;20899;6733;117034;-75
2023/05/20 07:42:47;;;;;;;6.43;6.03;;;21.10;45.50;;;;;;20835;6745;116942;-76
2023/05/20 07:45:23;;;;;;;6.90;6.50;;;20.60;46.40;;;;;;20873;6731;121231;-76
2023/05/20 07:47:59;;;;;;;7.20;6.80;;;20.60;46.40;;;;;;20670;6736;277143;-76
2023/05/20 07:50:34;;;;;;;8.17;7.57;;;20.80;46.00;;;;;;20834;6752;120852;-75
2023/05/20 07:53:10;;;;;;;16.53;14.60;;;20.90;45.90;;;;;;20764;6752;117500;-76
2023/05/20 07:55:45;;;;;;;7.60;7.10;;;20.70;45.90;;;;;;20584;6765;278179;-75
2023/05/20 07:58:21;;;;;;;8.10;7.50;;;20.80;45.10;;;;;;20685;6733;339668;-76
2023/05/20 08:00:57;;;;;;;7.10;6.60;;;21.10;44.70;;;;;;20645;6748;279475;-76
2023/05/20 08:03:32;;;;;;;6.90;6.47;;;21.40;45.10;;;;;;20553;6748;308207;-79
2023/05/20 08:06:08;;;;;;;6.70;6.30;;;21.90;45.60;;;;;;20756;6721;305574;-77
2023/05/20 08:08:44;;;;;;;7.40;6.70;;;22.60;42.10;;;;;;20663;6736;307026;-79
2023/05/20 08:11:23;;;;;;;6.17;5.77;;;22.50;41.90;;;;;;20827;6751;117200;-79
2023/05/20 08:13:58;;;;;;;6.33;6.00;;;22.30;42.50;;;;;;20796;6736;117115;-80
2023/05/20 08:16:34;;;;;;;6.63;6.10;;;21.90;43.10;;;;;;20975;6712;117178;-77
2023/05/20 08:19:10;;;;;;;7.10;6.70;;;21.60;43.80;;;;;;20737;6712;305122;-77
2023/05/20 08:21:46;;;;;;;6.80;6.40;;;21.70;43.00;;;;;;20972;6712;117394;-79
2023/05/20 08:24:21;;;;;;;7.10;6.60;;;21.50;43.40;;;;;;20611;6712;311796;-80
2023/05/20 08:26:56;;;;;;;6.93;6.53;;;21.60;43.70;;;;;;20755;6712;305812;-76
2023/05/20 08:29:32;;;;;;;9.27;8.73;;;21.80;43.50;;;;;;20731;6712;306409;-76
2023/05/20 08:32:08;;;;;;;6.53;6.23;;;22.00;43.20;;;;;;20973;6712;120674;-78
2023/05/20 08:34:43;;;;;;;6.70;6.30;;;21.80;43.30;;;;;;20592;6712;300641;-81
2023/05/20 08:37:19;;;;;;;7.07;6.47;;;21.90;43.40;;;;;;20719;6712;310388;-77
2023/05/20 08:50:36;;;;;;;6.67;6.17;;;24.00;40.80;;;;;;21309;6474;66920;-78
2023/05/20 08:53:02;;;;;;;7.13;6.63;;;24.10;41.30;;;;;;20662;6769;338826;-78
2023/05/20 08:55:32;;;;;;;7.07;6.57;;;24.20;40.90;;;;;;20500;6843;309863;-81
2023/05/20 08:57:57;;;;;;;6.10;5.63;;;24.40;39.60;;;;;;20684;6837;117479;-78
2023/05/20 09:00:26;;;;;;;6.72;6.32;;;24.30;40.30;;;;;;20538;6837;335256;-79
2023/05/20 09:02:48;;;;;;;6.40;6.10;;;24.30;39.40;;;;;;20509;6837;278043;-78
2023/05/20 09:05:14;;;;;;;6.60;6.20;;;24.30;39.50;;;;;;20474;6844;306477;-78
2023/05/20 09:07:42;;;;;;;6.30;6.00;;;24.50;39.60;;;;;;20529;6835;288332;-78
2023/05/20 09:10:09;;;;;;;6.10;5.70;;;24.50;39.00;;;;;;20749;6835;117030;-79
2023/05/20 09:12:35;;;;;;;7.07;6.60;;;24.20;39.30;;;;;;20529;6839;317526;-78
2023/05/20 09:15:01;;;;;;;6.53;6.12;;;24.10;39.40;;;;;;20738;6835;117206;-79
2023/05/20 09:17:28;;;;;;;5.97;5.67;;;24.00;39.70;;;;;;20525;6835;291736;-79
2023/05/20 09:19:53;;;;;;;5.87;5.57;;;24.00;40.20;;;;;;20754;6835;117375;-78
2023/05/20 09:22:26;;;;;;;5.97;5.67;;;24.00;40.00;;;;;;20749;6835;119325;-78
2023/05/20 09:24:53;;;;;;;6.37;5.97;;;23.80;40.10;;;;;;20798;6818;117239;-80
2023/05/20 09:27:19;;;;;;;5.93;5.53;;;23.60;40.20;;;;;;20836;6823;121964;-77
2023/05/20 09:29:44;;;;;;;6.65;6.25;;;23.50;40.70;;;;;;20618;6808;340621;-83
2023/05/20 09:32:10;;;;;;;6.03;5.73;;;23.90;39.50;;;;;;20617;6808;289491;-81
2023/05/20 09:34:41;;;;;;;6.50;6.10;;;23.90;39.50;;;;;;20830;6809;117438;-77
2023/05/20 09:37:06;;;;;;;6.70;6.10;;;23.70;39.60;;;;;;20779;6809;117265;-82
2023/05/20 09:39:31;;;;;;;6.00;5.70;;;23.70;39.60;;;;;;20575;6819;287698;-79
2023/05/20 09:41:56;;;;;;;6.07;5.57;;;23.90;39.50;;;;;;20807;6819;117243;-79
2023/05/20 09:44:22;;;;;;;6.85;6.35;;;23.90;39.80;;;;;;20645;6808;280917;-84
2023/05/20 09:46:48;;;;;;;6.90;6.50;;;24.00;39.30;;;;;;20606;6808;306601;-81
2023/05/20 09:49:15;;;;;;;6.67;6.13;;;24.20;39.90;;;;;;20695;6808;278077;-83
2023/05/20 09:51:39;;;;;;;5.80;5.50;;;24.60;38.80;;;;;;20887;6808;89056;-87
2023/05/20 09:54:07;;;;;;;6.83;6.33;;;24.70;39.40;;;;;;20687;6808;301160;-79
2023/05/20 09:56:32;;;;;;;6.47;6.13;;;24.80;38.70;;;;;;20892;6808;116049;-78
2023/05/20 09:58:58;;;;;;;6.43;6.03;;;24.70;39.10;;;;;;20872;6808;120077;-81
2023/05/20 10:01:24;;;;;;;5.53;5.23;;;24.20;39.90;;;;;;20822;6807;123036;-78
2023/05/20 10:03:49;;;;;;;6.00;5.60;;;24.20;39.70;;;;;;20839;6808;120883;-83
2023/05/20 10:06:16;;;;;;;6.20;5.87;;;24.00;39.60;;;;;;20630;6808;337118;-79
2023/05/20 10:08:57;;;;;;;5.70;5.40;;;24.00;38.90;;;;;;20788;6808;117092;-77
2023/05/20 10:11:36;;;;;;;6.10;5.63;;;23.80;39.10;;;;;;20796;6808;117113;-80
2023/05/20 10:14:08;;;;;;;5.53;5.23;;;23.50;39.80;;;;;;20455;6808;117427;-78
2023/05/20 10:16:37;;;;;;;6.00;5.53;;;23.40;40.20;;;;;;20799;6808;116886;-78
2023/05/20 10:19:25;;;;;;;5.53;5.23;;;23.40;40.10;;;;;;20826;6808;117492;-76
2023/05/20 10:22:04;;;;;;;6.10;5.73;;;23.20;40.10;;;;;;20834;6808;117583;-78
2023/05/20 10:24:33;;;;;;;6.17;5.87;;;23.20;40.40;;;;;;20618;6808;290016;-78
2023/05/20 10:27:00;;;;;;;6.40;6.00;;;23.50;40.10;;;;;;20619;6808;308552;-77
2023/05/20 10:29:25;;;;;;;5.67;5.27;;;23.90;39.60;;;;;;20808;6808;117328;-77
2023/05/20 10:31:50;;;;;;;6.07;5.67;;;24.00;39.60;;;;;;20625;6808;281775;-75
2023/05/20 10:34:16;;;;;;;5.80;5.45;;;24.20;39.60;;;;;;20834;6808;117521;-74
2023/05/20 10:36:41;;;;;;;5.80;5.50;;;24.30;39.30;;;;;;20630;6808;310870;-75
2023/05/20 10:39:07;;;;;;;6.07;5.50;;;24.50;38.90;;;;;;20836;6808;117244;-78
2023/05/20 10:41:33;;;;;;;6.30;5.85;;;24.50;38.60;;;;;;20592;6808;310899;-76
2023/05/20 10:44:01;;;;;;;5.20;4.90;;;24.70;38.60;;;;;;20822;6808;121239;-74
2023/05/20 10:46:27;;;;;;;5.90;5.50;;;24.70;37.70;;;;;;20618;6808;312404;-77
2023/05/20 10:48:53;;;;;;;5.53;5.23;;;24.60;37.60;;;;;;20620;6808;295834;-76
2023/05/20 10:51:18;;;;;;;5.83;5.30;;;24.80;37.90;;;;;;20814;6808;143997;-76
2023/05/20 10:53:44;;;;;;;11.88;11.18;;;24.80;37.80;;;;;;20618;6808;293413;-76
2023/05/20 10:56:17;;;;;;;5.50;5.10;;;24.80;38.10;;;;;;20828;6808;117304;-75
2023/05/20 10:58:42;;;;;;;4.67;4.47;;;24.80;38.10;;;;;;20805;6808;116973;-76
2023/05/20 11:01:07;;;;;;;5.67;5.30;;;24.60;38.50;;;;;;20629;6808;285811;-78
2023/05/20 11:03:33;;;;;;;5.87;5.50;;;24.80;38.70;;;;;;20443;6808;277483;-75
2023/05/20 11:05:59;;;;;;;6.00;4.60;;;25.20;38.00;;;;;;20834;6808;116990;-76
2023/05/20 11:08:25;;;;;;;5.68;5.30;;;25.10;37.80;;;;;;20616;6808;305543;-78
2023/05/20 11:10:50;;;;;;;5.07;4.77;;;25.20;37.50;;;;;;20825;6808;117953;-76
2023/05/20 11:13:16;;;;;;;5.20;4.90;;;25.10;37.90;;;;;;20522;6807;299506;-76
2023/05/20 11:15:42;;;;;;;5.00;4.70;;;25.20;38.10;;;;;;20583;6808;309842;-77
2023/05/20 11:18:07;;;;;;;5.30;5.00;;;25.40;38.00;;;;;;20814;6808;117142;-76
2023/05/20 11:20:34;;;;;;;5.20;4.90;;;25.40;37.80;;;;;;20574;6808;306535;-79
2023/05/20 11:22:59;;;;;;;5.80;5.45;;;25.70;37.40;;;;;;20620;6808;336415;-77
2023/05/20 11:25:27;;;;;;;5.27;5.00;;;25.60;37.30;;;;;;20595;6808;307882;-78
2023/05/20 11:27:51;;;;;;;5.00;4.60;;;25.90;37.00;;;;;;20831;6808;117717;-81
2023/05/20 11:30:20;;;;;;;5.70;5.40;;;25.90;37.30;;;;;;20850;6808;67028;-85
2023/05/20 11:32:59;;;;;;;5.07;4.78;;;25.70;37.30;;;;;;20620;6808;307860;-78
2023/05/20 11:35:27;;;;;;;5.50;5.17;;;25.70;37.40;;;;;;20596;6808;311094;-77
2023/05/20 11:37:52;;;;;;;5.55;5.15;;;25.90;36.40;;;;;;20613;6808;337330;-78
2023/05/20 11:40:18;;;;;;;5.47;5.17;;;25.90;36.40;;;;;;20832;6808;121190;-78
2023/05/20 11:42:44;;;;;;;5.20;4.90;;;25.40;37.60;;;;;;20816;6808;117016;-76
2023/05/20 11:45:10;;;;;;;5.37;5.07;;;25.40;37.60;;;;;;20603;6808;311107;-75
2023/05/20 11:47:35;;;;;;;5.20;4.90;;;25.40;37.50;;;;;;20609;6808;307762;-77
2023/05/20 11:50:03;;;;;;;4.43;4.23;;;25.50;37.00;;;;;;20824;6808;117113;-78
2023/05/20 11:52:28;;;;;;;5.17;4.87;;;25.40;37.50;;;;;;20616;6808;315913;-76
2023/05/20 11:54:54;;;;;;;5.00;4.70;;;25.40;38.50;;;;;;20838;6808;117436;-75
2023/05/20 11:57:19;;;;;;;4.57;4.37;;;25.40;38.10;;;;;;20821;6808;117605;-77
2023/05/20 11:59:45;;;;;;;4.97;4.67;;;25.20;38.50;;;;;;20621;6808;278712;-75
2023/05/20 12:02:11;;;;;;;5.07;4.72;;;25.40;39.00;;;;;;20623;6808;301010;-75
2023/05/20 12:04:36;;;;;;;4.67;4.47;;;25.90;38.00;;;;;;20825;6808;117164;-75
2023/05/20 12:07:02;;;;;;;5.22;4.93;;;26.00;37.50;;;;;;20618;6808;306954;-76
2023/05/20 12:09:29;;;;;;;4.97;4.68;;;26.20;37.10;;;;;;20776;6808;123235;-80
2023/05/20 12:11:55;;;;;;;5.47;5.00;;;26.20;37.30;;;;;;20614;6808;305198;-78
2023/05/20 12:14:20;;;;;;;4.53;4.23;;;26.30;37.10;;;;;;20818;6808;117429;-77
2023/05/20 12:16:45;;;;;;;4.90;4.50;;;26.20;37.00;;;;;;20630;6808;278209;-77
2023/05/20 12:19:11;;;;;;;4.97;4.57;;;26.20;36.40;;;;;;20827;6808;117604;-77
2023/05/20 12:21:36;;;;;;;4.80;4.50;;;26.10;36.70;;;;;;20834;6808;117305;-77
2023/05/20 12:24:04;;;;;;;5.65;5.22;;;25.80;37.40;;;;;;20613;6806;311475;-76
2023/05/20 12:26:28;;;;;;;4.97;4.77;;;26.00;37.50;;;;;;20825;6808;117026;-78
2023/05/20 12:28:54;;;;;;;4.80;4.60;;;26.00;37.50;;;;;;20815;6808;117343;-82
2023/05/20 12:31:20;;;;;;;5.18;4.95;;;25.80;37.50;;;;;;20602;6808;334463;-75
2023/05/20 12:33:45;;;;;;;4.83;4.47;;;25.90;36.80;;;;;;20839;6808;117158;-76
2023/05/20 12:36:11;;;;;;;5.00;4.70;;;25.80;36.60;;;;;;20623;6808;277982;-76
2023/05/20 12:38:36;;;;;;;5.07;4.78;;;25.90;36.80;;;;;;20618;6808;277009;-76
2023/05/20 12:41:02;;;;;;;5.20;4.90;;;26.00;36.50;;;;;;20837;6808;117010;-76
2023/05/20 12:43:28;;;;;;;5.10;4.80;;;25.90;36.40;;;;;;20612;6808;277594;-78
2023/05/20 12:45:54;;;;;;;5.37;4.97;;;25.90;36.40;;;;;;20625;6808;306984;-77
2023/05/20 12:48:19;;;;;;;5.00;4.70;;;26.10;37.00;;;;;;20630;6808;278773;-81
2023/05/20 12:50:45;;;;;;;5.07;4.77;;;26.30;36.30;;;;;;20828;6808;116929;-76
2023/05/20 12:53:10;;;;;;;5.30;4.90;;;26.20;36.20;;;;;;20809;6808;121155;-75
2023/05/20 12:55:38;;;;;;;4.50;4.30;;;25.90;36.60;;;;;;20622;6808;277576;-78
2023/05/20 12:58:03;;;;;;;5.07;4.50;;;25.90;36.60;;;;;;20832;6808;117452;-78
2023/05/20 13:00:29;;;;;;;4.60;4.30;;;25.90;36.80;;;;;;20830;6808;117014;-84
2023/05/20 13:02:54;;;;;;;4.80;4.50;;;25.60;36.90;;;;;;20826;6808;117394;-82
2023/05/20 13:05:20;;;;;;;4.72;4.43;;;25.40;36.90;;;;;;20603;6808;307324;-79
2023/05/20 13:07:45;;;;;;;4.87;4.53;;;25.40;37.20;;;;;;20587;6808;341379;-81
2023/05/20 13:10:11;;;;;;;4.70;4.40;;;25.70;37.40;;;;;;20606;6808;306907;-77
2023/05/20 13:12:37;;;;;;;4.37;4.07;;;25.90;36.10;;;;;;20838;6808;118048;-76